createdAt,value
2023-03-08T00:03:32.965Z,32.90
2023-03-08T00:13:44.926Z,33.95
2023-03-08T00:18:51.516Z,32.75
2023-03-08T00:23:57.629Z,34.38
2023-03-08T00:35:40.477Z,28.63
2023-03-08T00:40:47.032Z,32.97
2023-03-08T00:45:53.542Z,28.48
2023-03-08T00:51:01.579Z,32.60
2023-03-08T00:56:10.015Z,34.33
2023-03-08T01:01:19.068Z,36.88
2023-03-08T01:06:27.577Z,30.50
2023-03-08T01:11:35.152Z,26.13
2023-03-08T01:16:41.185Z,36.00
2023-03-08T01:21:48.189Z,31.67
2023-03-08T01:26:57.578Z,37.20
2023-03-08T01:32:04.430Z,27.85
2023-03-08T01:37:11.097Z,38.22
2023-03-08T01:42:20.156Z,37.72
2023-03-08T01:47:35.156Z,38.03
2023-03-08T01:52:58.382Z,34.13
2023-03-08T02:04:01.902Z,42.47
2023-03-08T02:09:09.814Z,37.03
2023-03-08T02:14:16.207Z,46.28
2023-03-08T02:19:43.670Z,43.42
2023-03-08T02:24:56.444Z,40.65
2023-03-08T02:30:05.334Z,41.22
2023-03-08T02:35:12.498Z,50.17
2023-03-08T02:40:19.126Z,40.88
2023-03-08T02:45:25.975Z,44.92
2023-03-08T02:50:33.419Z,43.92
2023-03-08T02:55:41.671Z,40.28
2023-03-08T03:00:49.596Z,47.83
2023-03-08T03:05:56.599Z,42.10
2023-03-08T03:11:15.629Z,47.92
2023-03-08T03:16:21.703Z,47.95
2023-03-08T03:21:28.099Z,48.78
2023-03-08T03:26:34.802Z,50.78
2023-03-08T03:31:41.144Z,54.33
2023-03-08T03:36:47.676Z,45.40
2023-03-08T03:41:54.281Z,50.50
2023-03-08T03:47:00.998Z,50.63
2023-03-08T03:52:08.745Z,56.78
2023-03-08T03:57:24.292Z,42.70
2023-03-08T04:02:31.682Z,48.85
2023-03-08T04:07:39.555Z,49.45
2023-03-08T04:12:46.517Z,50.85
2023-03-08T04:17:54.845Z,59.28
2023-03-08T04:23:04.017Z,55.33
2023-03-08T04:28:15.899Z,54.15
2023-03-08T04:33:26.045Z,67.50
2023-03-08T04:38:35.437Z,64.60
2023-03-08T04:44:01.665Z,51.90
2023-03-08T04:49:29.432Z,57.78
2023-03-08T04:54:39.721Z,56.00
2023-03-08T05:00:00.411Z,54.55
2023-03-08T05:05:09.318Z,52.35
2023-03-08T05:10:15.899Z,48.78
2023-03-08T05:15:25.260Z,45.70
2023-03-08T05:20:44.669Z,52.33
2023-03-08T05:25:54.438Z,47.70
2023-03-08T05:31:08.977Z,46.88
2023-03-08T05:36:21.868Z,41.20
2023-03-08T05:41:30.831Z,46.45
2023-03-08T05:46:42.017Z,45.70
2023-03-08T05:51:52.103Z,39.50
2023-03-08T05:57:00.184Z,40.75
2023-03-08T06:02:08.018Z,42.58
2023-03-08T06:07:23.901Z,40.65
2023-03-08T06:12:34.954Z,39.80
2023-03-08T06:17:45.003Z,39.60
2023-03-08T06:22:56.413Z,42.13
2023-03-08T06:28:03.298Z,37.92
2023-03-08T06:33:15.279Z,40.90
2023-03-08T06:38:23.378Z,40.60
2023-03-08T06:43:29.967Z,37.05
2023-03-08T06:48:39.676Z,38.33
2023-03-08T06:53:46.259Z,47.75
2023-03-08T06:58:56.970Z,42.13
2023-03-08T07:04:06.959Z,42.33
2023-03-08T07:09:14.975Z,37.83
2023-03-08T07:14:21.422Z,46.58
2023-03-08T07:19:28.340Z,44.50
2023-03-08T07:24:35.592Z,49.15
2023-03-08T07:36:23.100Z,43.55
2023-03-08T07:41:32.308Z,42.47
2023-03-08T07:46:38.306Z,43.35
2023-03-08T07:51:44.407Z,45.38
2023-03-08T08:01:56.732Z,47.43
2023-03-08T08:07:05.027Z,44.92
2023-03-08T08:12:11.815Z,47.65
2023-03-08T08:23:11.600Z,47.80
2023-03-08T08:39:24.975Z,41.17
2023-03-08T08:44:36.402Z,41.65
2023-03-08T08:49:43.157Z,37.38
2023-03-08T08:54:49.153Z,39.42
2023-03-08T09:00:04.043Z,40.45
2023-03-08T09:11:28.103Z,24.75
2023-03-08T09:23:20.981Z,35.38
2023-03-08T09:34:11.500Z,30.60
2023-03-08T09:40:21.192Z,34.17
2023-03-08T09:46:07.356Z,33.63
2023-03-08T09:52:48.329Z,33.28
2023-03-08T10:03:34.927Z,14.20
2023-03-08T10:09:01.942Z,14.65
2023-03-08T10:33:37.088Z,28.00
2023-03-08T10:39:10.988Z,22.27
2023-03-08T10:44:34.808Z,24.73
2023-03-08T10:49:40.373Z,23.40
2023-03-08T10:54:46.420Z,24.08
2023-03-08T10:59:53.033Z,21.42
2023-03-08T11:05:01.632Z,16.20
2023-03-08T11:10:23.775Z,23.52
2023-03-08T11:15:30.703Z,24.83
2023-03-08T11:20:58.948Z,23.30
2023-03-08T11:26:18.349Z,21.30
2023-03-08T11:31:41.764Z,23.98
2023-03-08T11:37:15.610Z,23.10
2023-03-08T11:42:48.590Z,25.00
2023-03-08T11:48:11.403Z,25.23
2023-03-08T11:53:28.674Z,28.92
2023-03-08T12:03:45.718Z,26.25
2023-03-08T12:09:15.014Z,26.20
2023-03-08T12:14:31.718Z,27.52
2023-03-08T12:19:52.467Z,31.98
2023-03-08T12:25:07.584Z,45.50
2023-03-08T12:30:13.977Z,47.17
2023-03-08T12:35:34.366Z,40.70
2023-03-08T12:40:52.322Z,37.20
2023-03-08T12:46:07.291Z,33.78
2023-03-08T12:51:17.856Z,32.20
2023-03-08T12:56:44.460Z,59.75
2023-03-08T13:02:04.725Z,49.55
2023-03-08T13:07:19.791Z,54.05
2023-03-08T13:12:45.011Z,54.17
2023-03-08T13:18:05.795Z,53.10
2023-03-08T13:23:28.268Z,48.35
2023-03-08T13:34:56.195Z,50.45
2023-03-08T13:40:55.357Z,52.00
2023-03-08T13:51:48.770Z,53.30
2023-03-08T14:02:38.223Z,48.35
2023-03-08T14:08:11.540Z,47.45
2023-03-08T14:13:49.682Z,46.63
2023-03-08T14:19:02.354Z,44.60
2023-03-08T14:24:34.440Z,45.00
2023-03-08T14:29:52.901Z,57.13
2023-03-08T14:35:30.874Z,45.97
2023-03-08T14:40:44.520Z,47.00
2023-03-08T14:46:07.529Z,44.03
2023-03-08T14:51:32.718Z,44.63
2023-03-08T14:56:58.146Z,46.20
2023-03-08T15:02:22.378Z,45.35
2023-03-08T15:07:37.794Z,44.75
2023-03-08T15:12:44.096Z,43.60
2023-03-08T15:17:53.750Z,42.28
2023-03-08T15:23:11.970Z,47.60
2023-03-08T15:28:20.081Z,44.05
2023-03-08T15:33:29.353Z,46.88
2023-03-08T15:38:51.963Z,50.13
2023-03-08T15:43:58.689Z,46.65
2023-03-08T15:49:05.058Z,47.03
2023-03-08T16:00:57.948Z,49.25
2023-03-08T16:06:13.316Z,55.03
2023-03-08T16:11:25.634Z,55.05
2023-03-08T16:16:44.804Z,52.42
2023-03-08T16:21:55.451Z,52.47
2023-03-08T16:27:06.011Z,55.80
2023-03-08T16:32:17.764Z,49.63
2023-03-08T16:37:34.312Z,45.70
2023-03-08T16:42:41.584Z,46.50
2023-03-08T16:47:48.261Z,59.35
2023-03-08T16:53:01.168Z,73.03
2023-03-08T16:58:10.954Z,62.33
2023-03-08T17:03:17.541Z,62.67
2023-03-08T17:08:23.638Z,60.80
2023-03-08T17:13:29.563Z,98.65
2023-03-08T17:18:36.034Z,77.72
2023-03-08T17:23:42.705Z,77.68
2023-03-08T17:28:49.131Z,83.30
2023-03-08T17:39:23.092Z,75.28
2023-03-08T17:44:28.922Z,74.97
2023-03-08T17:49:35.825Z,58.97
2023-03-08T17:54:42.002Z,89.80
